^^
Station Historical Data
 
Daily Summary for January 22, 2018 Units:  Metric    English   Both
« Previous Day
Next Day »
Daily Weekly Monthly Yearly Custom
  Current: High: Low: Average:
Temperature: -0.1 °C 1.4 °C -0.4 °C 0.4 °C
Dew Point: -2.2 °C -0.3 °C -2.2 °C -1.3 °C
Humidity: 86% 95% 83% 88%
Wind Speed: 1.6km/h 24.1km/h 0km/h 6.9km/h
Wind Gust: 3.2km/h 37km/h - -
WindSSW - - SSW
Pressure: 1015.1 hPa 1015.1 hPa 1006.3 hPa -
Precipitation: 0 mm      
Historical Graphs
 
 
Tabular Data for January 22, 2018
Time Temperature Dew Point Pressure Wind Wind Speed Wind Gust Humidity Rainfall Rate (Hourly) solar Conditions
00:00 -0.4 °C -1.2 °C 1006.3 hPa Calm     94% 0 mm WeatherDisplay:10.37 W/m2 RA
00:10 -0.4 °C -1.2 °C 1006.3 hPa Calm     94% 0 mm WeatherDisplay:10.37 W/m2 CLR
00:20 -0.4 °C -1.2 °C 1006.3 hPa Calm     94% 0 mm WeatherDisplay:10.37 W/m2 CLR
00:30 -0.4 °C -1.2 °C 1006.3 hPa Calm     94% 0 mm WeatherDisplay:10.37 W/m2 CLR
00:40 -0.4 °C -1.2 °C 1006.3 hPa Calm     94% 0 mm WeatherDisplay:10.37 W/m2 CLR
00:50 -0.4 °C -1.2 °C 1006.7 hPa Calm     94% 0 mm WeatherDisplay:10.37 W/m2 CLR
01:00 -0.3 °C -1.2 °C 1006.7 hPa Calm     94% 0 mm WeatherDisplay:10.37 W/m2 CLR
01:10 -0.4 °C -1.2 °C 1006.7 hPa Calm     94% 0 mm WeatherDisplay:10.37 W/m2 CLR
01:20 -0.3 °C -1.2 °C 1007 hPa Calm     94% 0 mm WeatherDisplay:10.37 W/m2 CLR
01:30 -0.3 °C -1.2 °C 1007 hPa Calm     94% 0 mm WeatherDisplay:10.37 W/m2 CLR
01:40 -0.3 °C -1 °C 1007 hPa Calm     95% 0 mm WeatherDisplay:10.37 W/m2 CLR
01:50 -0.3 °C -1 °C 1007.3 hPa Calm     95% 0 mm WeatherDisplay:10.37 W/m2 CLR
02:00 -0.2 °C -0.9 °C 1007.3 hPa Calm     95% 0 mm WeatherDisplay:10.37 W/m2 CLR
02:10 -0.2 °C -0.9 °C 1007.3 hPa Calm     95% 0 mm WeatherDisplay:10.37 W/m2 CLR
02:20 -0.2 °C -0.9 °C 1007.3 hPa Calm     95% 0 mm WeatherDisplay:10.37 W/m2 CLR
02:30 -0.2 °C -0.9 °C 1007.7 hPa Calm     95% 0 mm WeatherDisplay:10.37 W/m2 CLR
02:40 -0.2 °C -0.9 °C 1007.3 hPa Calm     95% 0 mm WeatherDisplay:10.37 W/m2 CLR
02:50 -0.2 °C -1.1 °C 1007.3 hPa Calm     94% 0 mm WeatherDisplay:10.37 W/m2 CLR
03:00 -0.1 °C -0.9 °C 1007.3 hPa Calm     94% 0 mm WeatherDisplay:10.37 W/m2 CLR
03:10 -0.1 °C -0.9 °C 1007.3 hPa Calm     94% 0 mm WeatherDisplay:10.37 W/m2 CLR
03:20 0 °C -0.8 °C 1007.7 hPa Calm     94% 0 mm WeatherDisplay:10.37 W/m2 CLR
03:30 0.1 °C -0.8 °C 1007.7 hPa Calm     94% 0 mm WeatherDisplay:10.37 W/m2 CLR
03:40 0.1 °C -0.8 °C 1007.7 hPa Calm     94% 0 mm WeatherDisplay:10.37 W/m2 CLR
03:50 0.2 °C -0.8 °C 1007.7 hPa Calm     93% 0 mm WeatherDisplay:10.37 W/m2 CLR
04:00 0.2 °C -0.8 °C 1008 hPa Calm     93% 0 mm WeatherDisplay:10.37 W/m2 CLR
04:10 0.2 °C -0.8 °C 1008 hPa Calm     93% 0 mm WeatherDisplay:10.37 W/m2 CLR
04:20 0.3 °C -0.7 °C 1008 hPa Calm     93% 0 mm WeatherDisplay:10.37 W/m2 CLR
04:30 0.3 °C -0.8 °C 1008 hPa Calm     92% 0 mm WeatherDisplay:10.37 W/m2 CLR
04:40 0.3 °C -0.8 °C 1008 hPa Calm     92% 0 mm WeatherDisplay:10.37 W/m2 CLR
04:50 0.3 °C -0.8 °C 1008 hPa Calm     92% 0 mm WeatherDisplay:10.37 W/m2 CLR
05:00 0.3 °C -0.8 °C 1008 hPa Calm     92% 0 mm WeatherDisplay:10.37 W/m2 CLR
05:10 0.4 °C -0.7 °C 1008 hPa Calm     92% 0 mm WeatherDisplay:10.37 W/m2 CLR
05:20 0.5 °C -0.8 °C 1008 hPa Calm     91% 0 mm WeatherDisplay:10.37 W/m2 CLR
05:30 0.5 °C -0.8 °C 1008.4 hPa North 12.9 km/h 19.3 km/h 91% 0 mm WeatherDisplay:10.37 W/m2 CLR
05:40 0.5 °C -0.8 °C 1008.4 hPa North 9.7 km/h 19.3 km/h 91% 0 mm WeatherDisplay:10.37 W/m2 CLR
05:50 0.5 °C -0.9 °C 1008.4 hPa North 4.8 km/h 17.7 km/h 90% 0 mm WeatherDisplay:10.37 W/m2 CLR
06:00 0.5 °C -0.9 °C 1008.7 hPa North 8 km/h 12.9 km/h 90% 0 mm WeatherDisplay:10.37 W/m2 CLR
06:20 0.5 °C -0.9 °C 1008.7 hPa North 4.8 km/h 12.9 km/h 90% 0 mm WeatherDisplay:10.37 W/m2 CLR
06:30 0.5 °C -0.9 °C 1009 hPa North 9.7 km/h 12.9 km/h 90% 0 mm WeatherDisplay:10.37 W/m2 CLR
06:40 0.4 °C -1.1 °C 1008.7 hPa North 4.8 km/h 12.9 km/h 90% 0 mm WeatherDisplay:10.37 W/m2 CLR
06:50 0.4 °C -1.1 °C 1009 hPa North 4.8 km/h 11.3 km/h 90% 0 mm WeatherDisplay:10.37 W/m2 CLR
07:20 0.4 °C -1.1 °C 1009 hPa North 3.2 km/h 9.7 km/h 90% 0 mm WeatherDisplay:10.37 W/m2 CLR
07:30 0.4 °C -0.9 °C 1009 hPa North 3.2 km/h 6.4 km/h 91% 0 mm WeatherDisplay:10.37 W/m2 CLR
07:40 0.4 °C -0.9 °C 1009.4 hPa North 3.2 km/h 6.4 km/h 91% 0 mm WeatherDisplay:10.37 W/m2 CLR
07:50 0.4 °C -0.9 °C 1009 hPa North 1.6 km/h 4.8 km/h 91% 0 mm WeatherDisplay:10.37 W/m2 CLR
08:10 0.4 °C -0.9 °C 1009.7 hPa North 1.6 km/h 6.4 km/h 91% 0 mm WeatherDisplay:10.37 W/m2 CLR
08:20 0.5 °C -0.8 °C 1009.7 hPa North 4.8 km/h 8 km/h 91% 0 mm WeatherDisplay:10.37 W/m2 CLR
08:30 0.5 °C -0.8 °C 1010 hPa NW 8 km/h 11.3 km/h 91% 0 mm WeatherDisplay:10.37 W/m2 CLR
08:40 0.5 °C -0.8 °C 1010 hPa SW 9.7 km/h 17.7 km/h 91% 0 mm WeatherDisplay:10.37 W/m2 CLR
09:00 0.6 °C -0.7 °C 1010.4 hPa SW 9.7 km/h 12.9 km/h 91% 0 mm WeatherDisplay:10.37 W/m2 CLR
09:10 0.6 °C -0.7 °C 1010.7 hPa SW 4.8 km/h 11.3 km/h 91% 0 mm WeatherDisplay:10.37 W/m2 CLR
09:20 0.7 °C -0.8 °C 1010.7 hPa SW 8 km/h 12.9 km/h 90% 0 mm WeatherDisplay:10.37 W/m2 CLR
09:30 0.7 °C -0.8 °C 1010.7 hPa SW 11.3 km/h 14.5 km/h 90% 0 mm WeatherDisplay:10.37 W/m2 CLR
09:40 0.7 °C -0.8 °C 1010.7 hPa SW 12.9 km/h 14.5 km/h 90% 0 mm WeatherDisplay:10.37 W/m2 CLR
09:50 0.7 °C -0.8 °C 1010.7 hPa SW 8 km/h 16.1 km/h 90% 0 mm WeatherDisplay:10.37 W/m2 CLR
10:10 0.8 °C -0.7 °C 1011.4 hPa SW 11.3 km/h 16.1 km/h 90% 0 mm WeatherDisplay:10.37 W/m2 CLR
10:30 0.9 °C -0.5 °C 1011.1 hPa SW 14.5 km/h 22.5 km/h 90% 0 mm WeatherDisplay:10.37 W/m2 CLR
10:40 1.1 °C -0.3 °C 1011.1 hPa WSW 12.9 km/h 20.9 km/h 90% 0 mm WeatherDisplay:10.37 W/m2 CLR
10:50 1.2 °C -0.4 °C 1011.1 hPa SW 14.5 km/h 22.5 km/h 89% 0 mm WeatherDisplay:10.37 W/m2 CLR
11:00 1.4 °C -0.4 °C 1011.1 hPa WSW 11.3 km/h 20.9 km/h 88% 0 mm WeatherDisplay:10.37 W/m2 CLR
11:10 1.4 °C -0.6 °C 1011.1 hPa West 19.3 km/h 24.1 km/h 87% 0 mm WeatherDisplay:10.37 W/m2 CLR
11:20 1.4 °C -0.7 °C 1011.1 hPa SW 12.9 km/h 24.1 km/h 86% 0 mm WeatherDisplay:10.37 W/m2 CLR
11:30 1.4 °C -0.8 °C 1011.1 hPa WSW 16.1 km/h 25.7 km/h 85% 0 mm WeatherDisplay:10.37 W/m2 CLR
11:40 1.4 °C -0.8 °C 1011.1 hPa WSW 12.9 km/h 27.4 km/h 85% 0 mm WeatherDisplay:10.37 W/m2 CLR
11:50 1.3 °C -1.1 °C 1011.1 hPa WSW 14.5 km/h 27.4 km/h 84% 0 mm WeatherDisplay:10.37 W/m2 CLR
12:10 1.3 °C -1.1 °C 1011.1 hPa West 16.1 km/h 25.7 km/h 84% 0 mm WeatherDisplay:10.37 W/m2 CLR
12:20 1.2 °C -1.2 °C 1011.1 hPa WSW 19.3 km/h 32.2 km/h 84% 0 mm WeatherDisplay:10.37 W/m2 CLR
12:30 1.2 °C -1.4 °C 1011.1 hPa WSW 19.3 km/h 33.8 km/h 83% 0 mm WeatherDisplay:10.37 W/m2 CLR
12:40 1.2 °C -1.4 °C 1011.1 hPa West 19.3 km/h 29 km/h 83% 0 mm WeatherDisplay:10.37 W/m2 CLR
13:00 1.1 °C -1.4 °C 1011.1 hPa WSW 22.5 km/h 37 km/h 83% 0 mm WeatherDisplay:10.37 W/m2 CLR
13:10 1.1 °C -1.4 °C 1011.1 hPa WNW 24.1 km/h 32.2 km/h 83% 0 mm WeatherDisplay:10.37 W/m2 CLR
13:20 1.1 °C -1.4 °C 1011.1 hPa WSW 22.5 km/h 29 km/h 83% 0 mm WeatherDisplay:10.37 W/m2 CLR
13:30 1 °C -1.6 °C 1011.1 hPa West 22.5 km/h 29 km/h 83% 0 mm WeatherDisplay:10.37 W/m2 CLR
13:40 1 °C -1.6 °C 1011.1 hPa WSW 16.1 km/h 27.4 km/h 83% 0 mm WeatherDisplay:10.37 W/m2 CLR
13:50 1 °C -1.6 °C 1011.4 hPa WSW 12.9 km/h 32.2 km/h 83% 0 mm WeatherDisplay:10.37 W/m2 CLR
14:00 1 °C -1.6 °C 1011.7 hPa SW 14.5 km/h 24.1 km/h 83% 0 mm WeatherDisplay:10.37 W/m2 CLR
14:10 1 °C -1.6 °C 1011.7 hPa SW 19.3 km/h 27.4 km/h 83% 0 mm WeatherDisplay:10.37 W/m2 CLR
14:20 1 °C -1.6 °C 1011.7 hPa WSW 16.1 km/h 25.7 km/h 83% 0 mm WeatherDisplay:10.37 W/m2 CLR
14:30 1 °C -1.6 °C 1012.1 hPa WSW 19.3 km/h 33.8 km/h 83% 0 mm WeatherDisplay:10.37 W/m2 CLR
14:40 0.9 °C -1.7 °C 1012.1 hPa West 19.3 km/h 27.4 km/h 83% 0 mm WeatherDisplay:10.37 W/m2 CLR
14:50 0.9 °C -1.7 °C 1012.1 hPa WSW 11.3 km/h 24.1 km/h 83% 0 mm WeatherDisplay:10.37 W/m2 CLR
15:00 0.9 °C -1.7 °C 1012.4 hPa WSW 11.3 km/h 22.5 km/h 83% 0 mm WeatherDisplay:10.37 W/m2 CLR
15:10 0.9 °C -1.7 °C 1012.4 hPa WSW 11.3 km/h 20.9 km/h 83% 0 mm WeatherDisplay:10.37 W/m2 CLR
15:20 0.9 °C -1.7 °C 1012.8 hPa SW 12.9 km/h 22.5 km/h 83% 0 mm WeatherDisplay:10.37 W/m2 CLR
15:30 0.9 °C -1.7 °C 1012.8 hPa WSW 8 km/h 19.3 km/h 83% 0 mm WeatherDisplay:10.37 W/m2 CLR
15:40 0.8 °C -1.8 °C 1012.8 hPa WSW 12.9 km/h 20.9 km/h 83% 0 mm WeatherDisplay:10.37 W/m2 CLR
15:50 0.7 °C -1.8 °C 1013.1 hPa WSW 8 km/h 20.9 km/h 83% 0 mm WeatherDisplay:10.37 W/m2 CLR
16:00 0.7 °C -1.7 °C 1013.1 hPa WSW 9.7 km/h 22.5 km/h 84% 0 mm WeatherDisplay:10.37 W/m2 CLR
16:10 0.7 °C -1.7 °C 1013.1 hPa WSW 9.7 km/h 19.3 km/h 84% 0 mm WeatherDisplay:10.37 W/m2 CLR
16:20 0.6 °C -1.8 °C 1013.1 hPa West 8 km/h 17.7 km/h 84% 0 mm WeatherDisplay:10.37 W/m2 CLR
16:30 0.6 °C -1.8 °C 1013.1 hPa WSW 4.8 km/h 16.1 km/h 84% 0 mm WeatherDisplay:10.37 W/m2 CLR
16:40 0.6 °C -1.8 °C 1013.4 hPa SW 4.8 km/h 9.7 km/h 84% 0 mm WeatherDisplay:10.37 W/m2 CLR
16:50 0.5 °C -1.9 °C 1013.4 hPa SW 4.8 km/h 9.7 km/h 84% 0 mm WeatherDisplay:10.37 W/m2 CLR
17:00 0.5 °C -1.9 °C 1013.4 hPa SW 8 km/h 9.7 km/h 84% 0 mm WeatherDisplay:10.37 W/m2 CLR
17:10 0.5 °C -1.9 °C 1013.8 hPa SW 14.5 km/h 20.9 km/h 84% 0 mm WeatherDisplay:10.37 W/m2 CLR
17:20 0.5 °C -1.9 °C 1014.1 hPa WSW 8 km/h 17.7 km/h 84% 0 mm WeatherDisplay:10.37 W/m2 CLR
17:30 0.5 °C -1.9 °C 1014.1 hPa West 3.2 km/h 12.9 km/h 84% 0 mm WeatherDisplay:10.37 W/m2 CLR
17:40 0.5 °C -1.9 °C 1014.4 hPa West 8 km/h 16.1 km/h 84% 0 mm WeatherDisplay:10.37 W/m2 CLR
17:50 0.5 °C -1.9 °C 1014.4 hPa West 4.8 km/h 12.9 km/h 84% 0 mm WeatherDisplay:10.37 W/m2 CLR
18:00 0.5 °C -1.9 °C 1014.4 hPa NW 4.8 km/h 11.3 km/h 84% 0 mm WeatherDisplay:10.37 W/m2 CLR
18:10 0.5 °C -2.1 °C 1014.4 hPa WNW 4.8 km/h 12.9 km/h 83% 0 mm WeatherDisplay:10.37 W/m2 CLR
18:20 0.5 °C -2.1 °C 1014.4 hPa West 8 km/h 14.5 km/h 83% 0 mm WeatherDisplay:10.37 W/m2 CLR
18:30 0.5 °C -1.9 °C 1014.4 hPa WSW 8 km/h 19.3 km/h 84% 0 mm WeatherDisplay:10.37 W/m2 CLR
18:40 0.5 °C -1.9 °C 1014.4 hPa WSW 3.2 km/h 12.9 km/h 84% 0 mm WeatherDisplay:10.37 W/m2 CLR
18:50 0.4 °C -2 °C 1014.8 hPa SW 8 km/h 11.3 km/h 84% 0 mm WeatherDisplay:10.37 W/m2 CLR
19:00 0.3 °C -2.1 °C 1014.8 hPa SW 9.7 km/h 11.3 km/h 84% 0 mm WeatherDisplay:10.37 W/m2 CLR
19:10 0.3 °C -2.1 °C 1014.8 hPa SW 9.7 km/h 9.7 km/h 84% 0 mm WeatherDisplay:10.37 W/m2 CLR
19:20 0.2 °C -2 °C 1014.8 hPa SW 4.8 km/h 9.7 km/h 85% 0 mm WeatherDisplay:10.37 W/m2 CLR
19:30 0.2 °C -2 °C 1014.8 hPa SW 3.2 km/h 9.7 km/h 85% 0 mm WeatherDisplay:10.37 W/m2 CLR
19:40 0.2 °C -2 °C 1014.8 hPa SW 3.2 km/h 8 km/h 85% 0 mm WeatherDisplay:10.37 W/m2 CLR
19:50 0.1 °C -2.1 °C 1015.1 hPa Calm   4.8 km/h 85% 0 mm WeatherDisplay:10.37 W/m2 CLR
20:00 0.1 °C -2.1 °C 1014.8 hPa SSW 1.6 km/h 6.4 km/h 85% 0 mm WeatherDisplay:10.37 W/m2 CLR
20:10 0 °C -2.1 °C 1014.8 hPa SSE 3.2 km/h 6.4 km/h 86% 0 mm WeatherDisplay:10.37 W/m2 CLR
20:20 0 °C -2.1 °C 1014.8 hPa SSW 1.6 km/h 4.8 km/h 86% 0 mm WeatherDisplay:10.37 W/m2 CLR
20:30 0 °C -2.1 °C 1014.8 hPa SSW 1.6 km/h 4.8 km/h 86% 0 mm WeatherDisplay:10.37 W/m2 CLR
20:40 0 °C -2.1 °C 1014.8 hPa South 1.6 km/h 4.8 km/h 86% 0 mm WeatherDisplay:10.37 W/m2 CLR
20:50 0 °C -2.1 °C 1015.1 hPa South 3.2 km/h 6.4 km/h 86% 0 mm WeatherDisplay:10.37 W/m2 CLR
21:00 -0.1 °C -2.2 °C 1015.1 hPa South 1.6 km/h 4.8 km/h 86% 0 mm WeatherDisplay:10.37 W/m2 CLR
21:10 -0.1 °C -2.2 °C 1015.1 hPa SSW 1.6 km/h 3.2 km/h 86% 0 mm WeatherDisplay:10.37 W/m2 CLR
Knjazevac Weather
Compliments of Weather Underground - 2.25 mb